Time;durP1;ratioP1;P1;durP2;ratioP2;P2;SDS_P1;SDS_P2;PMS_P1;PMS_P2;Temp;Humidity;BMP_temperature;BMP_pressure;BME280_temperature;BME280_humidity;BME280_pressure;Samples;Min_cycle;Max_cycle;Signal;HPM_P1;HPM_P2
2021/07/01 00:01:53;;;;;;;9.10;6.92;;;;;;;22.43;100.00;100548.19;1780604;78;21004;-68
2021/07/01 00:04:20;;;;;;;8.23;6.22;;;;;;;22.41;100.00;100552.05;1781031;78;20968;-65
2021/07/01 00:06:47;;;;;;;9.30;6.85;;;;;;;22.38;100.00;100555.05;1781370;78;21462;-67
2021/07/01 00:09:18;;;;;;;10.13;7.17;;;;;;;22.39;100.00;100554.05;1781856;78;21140;-67
2021/07/01 00:11:48;;;;;;;9.63;6.72;;;;;;;22.39;100.00;100550.83;1777631;78;20883;-67
2021/07/01 00:14:19;;;;;;;8.78;6.83;;;;;;;22.36;100.00;100548.86;1779756;78;21016;-63
2021/07/01 00:16:47;;;;;;;9.23;7.05;;;;;;;22.30;100.00;100548.90;1781546;78;21344;-65
2021/07/01 00:19:15;;;;;;;9.50;6.42;;;;;;;22.29;100.00;100562.19;1779315;78;20974;-67
2021/07/01 00:21:42;;;;;;;9.55;6.90;;;;;;;22.26;100.00;100568.80;1716721;81;21403;-66
2021/07/01 00:24:11;;;;;;;10.85;7.17;;;;;;;22.27;100.00;100559.61;1778873;78;21481;-66
2021/07/01 00:26:38;;;;;;;11.12;7.30;;;;;;;22.23;100.00;100554.55;1776980;78;21056;-65
2021/07/01 00:29:07;;;;;;;8.33;6.97;;;;;;;22.19;100.00;100551.20;1780804;78;21552;-67
2021/07/01 00:31:34;;;;;;;10.35;6.78;;;;;;;22.15;100.00;100560.67;1779839;78;20984;-68
2021/07/01 00:34:01;;;;;;;8.73;7.05;;;;;;;22.13;100.00;100568.13;1777664;78;21755;-66
2021/07/01 00:36:28;;;;;;;9.83;7.50;;;;;;;22.09;100.00;100570.77;1781596;77;21379;-66
2021/07/01 00:38:54;;;;;;;8.70;7.30;;;;;;;22.03;100.00;100558.03;1780917;78;21529;-67
2021/07/01 00:41:20;;;;;;;9.23;7.30;;;;;;;21.99;100.00;100553.81;1778693;78;21067;-68
2021/07/01 00:43:48;;;;;;;13.35;7.65;;;;;;;21.98;100.00;100550.71;1785047;78;21844;-67
2021/07/01 00:46:14;;;;;;;10.65;7.30;;;;;;;21.97;100.00;100552.23;1778918;78;21102;-69
2021/07/01 00:48:42;;;;;;;13.83;8.05;;;;;;;21.95;100.00;100557.81;1781642;78;21015;-65
2021/07/01 00:51:09;;;;;;;11.57;7.67;;;;;;;21.93;100.00;100551.63;1747710;78;21032;-68
2021/07/01 00:53:35;;;;;;;9.48;7.08;;;;;;;21.89;100.00;100563.33;1775441;79;22038;-66
2021/07/01 00:56:05;;;;;;;12.15;8.15;;;;;;;21.86;100.00;100564.08;1771107;78;20874;-65
2021/07/01 00:58:32;;;;;;;22.98;8.18;;;;;;;21.86;100.00;100565.44;1768561;78;21509;-66
2021/07/01 01:01:01;;;;;;;12.68;8.18;;;;;;;21.87;100.00;100569.89;1768935;78;21003;-64
2021/07/01 01:03:31;;;;;;;13.72;8.15;;;;;;;21.86;100.00;100581.30;1770524;78;20982;-68
2021/07/01 01:05:58;;;;;;;14.68;8.08;;;;;;;21.84;100.00;100586.02;1775026;78;22241;-66
2021/07/01 01:08:25;;;;;;;12.47;8.58;;;;;;;21.84;100.00;100592.00;1772881;78;20950;-68
2021/07/01 01:10:53;;;;;;;11.00;8.10;;;;;;;21.84;100.00;100605.64;1769105;79;21823;-66
2021/07/01 01:13:42;;;;;;;10.98;8.05;;;;;;;21.84;100.00;100622.02;1776723;78;21077;-67
2021/07/01 01:16:20;;;;;;;11.00;8.00;;;;;;;21.80;100.00;100611.84;1769314;78;21040;-64
2021/07/01 01:18:48;;;;;;;13.90;7.83;;;;;;;21.76;100.00;100599.47;1762649;78;21008;-67
2021/07/01 01:21:17;;;;;;;9.18;7.05;;;;;;;21.72;100.00;100613.85;1749977;79;21469;-66
2021/07/01 01:23:44;;;;;;;11.70;7.10;;;;;;;21.70;100.00;100635.46;1767303;78;21819;-67
2021/07/01 01:26:12;;;;;;;11.38;6.37;;;;;;;21.67;100.00;100637.94;1772079;79;21498;-66
2021/07/01 01:28:43;;;;;;;9.28;6.50;;;;;;;21.66;100.00;100638.94;1770272;79;20913;-66
2021/07/01 01:31:10;;;;;;;12.30;6.03;;;;;;;21.67;100.00;100627.02;1771672;79;21511;-67
2021/07/01 01:33:37;;;;;;;9.10;6.08;;;;;;;21.66;100.00;100634.84;1774100;79;22069;-67
2021/07/01 01:36:04;;;;;;;8.45;5.85;;;;;;;21.66;100.00;100638.94;1763385;79;21712;-68
2021/07/01 01:38:33;;;;;;;9.25;6.22;;;;;;;21.67;100.00;100644.76;1770338;79;21751;-67
2021/07/01 01:41:01;;;;;;;12.53;5.45;;;;;;;21.67;100.00;100651.58;1767382;79;20945;-67
2021/07/01 01:43:27;;;;;;;13.10;5.50;;;;;;;21.67;100.00;100635.21;1771283;79;21029;-66
2021/07/01 01:45:54;;;;;;;8.38;5.90;;;;;;;21.69;100.00;100631.85;1765910;79;21566;-66
2021/07/01 01:48:22;;;;;;;7.83;5.00;;;;;;;21.70;99.88;100647.23;1746409;79;21271;-66
2021/07/01 01:50:49;;;;;;;7.47;5.25;;;;;;;21.73;99.12;100655.15;1772225;78;20937;-65
2021/07/01 01:53:16;;;;;;;7.05;4.85;;;;;;;21.77;98.15;100653.04;1769785;79;21546;-66
2021/07/01 01:55:42;;;;;;;7.72;4.95;;;;;;;21.80;97.27;100652.77;1773440;79;21013;-68
2021/07/01 01:58:10;;;;;;;7.70;5.45;;;;;;;21.83;96.12;100646.20;1767469;78;21458;-67
2021/07/01 02:00:50;;;;;;;8.53;5.55;;;;;;;21.85;94.91;100642.84;1696943;80;21016;-67
2021/07/01 02:03:17;;;;;;;7.35;4.58;;;;;;;21.88;94.20;100636.64;1750151;80;21064;-68
2021/07/01 02:05:49;;;;;;;8.10;5.10;;;;;;;21.91;93.53;100632.77;1750485;80;20862;-67
2021/07/01 02:08:15;;;;;;;8.03;5.25;;;;;;;21.92;92.94;100626.82;1759600;80;20922;-69
2021/07/01 02:10:44;;;;;;;11.83;4.42;;;;;;;21.92;92.49;100620.84;1765762;80;21008;-66
2021/07/01 02:13:11;;;;;;;10.35;5.20;;;;;;;21.90;92.13;100609.20;1756940;80;21538;-66
2021/07/01 02:15:40;;;;;;;10.28;5.12;;;;;;;21.89;91.92;100602.89;1767312;80;21032;-67
2021/07/01 02:18:07;;;;;;;7.92;5.22;;;;;;;21.87;91.50;100593.09;1738416;80;20989;-67
2021/07/01 02:20:34;;;;;;;5.92;5.00;;;;;;;21.83;91.38;100595.20;1764722;80;21514;-68
2021/07/01 02:23:04;;;;;;;8.20;5.00;;;;;;;21.81;91.25;100599.94;1770559;79;21739;-68
2021/07/01 02:25:33;;;;;;;9.95;5.42;;;;;;;21.79;91.20;100591.02;1762071;79;21568;-66
2021/07/01 02:28:05;;;;;;;8.18;5.28;;;;;;;21.79;91.29;100588.80;1750167;79;22361;-69
2021/07/01 02:30:31;;;;;;;6.97;5.05;;;;;;;21.79;91.31;100584.71;1767612;80;21837;-68
2021/07/01 02:32:58;;;;;;;11.93;5.42;;;;;;;21.78;91.22;100589.80;1760936;80;21513;-67
2021/07/01 02:35:25;;;;;;;7.65;4.83;;;;;;;21.79;91.24;100595.63;1756367;80;21585;-67
2021/07/01 02:38:10;;;;;;;5.78;4.70;;;;;;;21.80;91.37;100588.66;1764132;80;21109;-67
2021/07/01 02:40:39;;;;;;;12.45;5.45;;;;;;;21.81;91.58;100589.53;1762234;80;20933;-68
2021/07/01 02:43:08;;;;;;;7.08;5.17;;;;;;;21.81;91.72;100593.11;1766111;80;20876;-68
2021/07/01 02:45:34;;;;;;;12.33;5.95;;;;;;;21.83;91.82;100597.09;1760333;80;21506;-67
2021/07/01 02:48:04;;;;;;;8.40;5.58;;;;;;;21.86;91.79;100600.91;1759608;80;21010;-69
2021/07/01 02:50:33;;;;;;;8.60;5.37;;;;;;;21.85;91.65;100602.76;1762931;80;22609;-68
2021/07/01 02:53:00;;;;;;;9.35;5.15;;;;;;;21.83;91.90;100599.30;1736377;80;21410;-69
2021/07/01 02:55:27;;;;;;;9.18;5.12;;;;;;;21.83;92.04;100606.13;1767938;80;21420;-69
2021/07/01 02:57:54;;;;;;;10.40;5.00;;;;;;;21.81;92.33;100608.12;1769630;79;21105;-69
2021/07/01 03:00:21;;;;;;;11.03;4.97;;;;;;;21.81;92.62;100619.55;1768861;78;20972;-69
2021/07/01 03:02:52;;;;;;;9.95;5.67;;;;;;;21.84;92.90;100618.77;1769318;78;21077;-69
2021/07/01 03:05:32;;;;;;;12.95;5.95;;;;;;;21.86;93.03;100614.05;1694287;80;20906;-68
2021/07/01 03:07:59;;;;;;;7.17;5.95;;;;;;;21.91;93.15;100616.39;1771672;79;21032;-67
2021/07/01 03:10:26;;;;;;;9.98;6.30;;;;;;;21.96;93.23;100608.66;1768172;79;20986;-68
2021/07/01 03:12:55;;;;;;;8.58;5.53;;;;;;;22.03;93.16;100617.20;1769645;79;21028;-67
2021/07/01 03:15:22;;;;;;;7.00;5.40;;;;;;;22.12;93.15;100608.72;1767898;78;21092;-69
2021/07/01 03:17:49;;;;;;;9.50;5.47;;;;;;;22.20;92.98;100611.64;1774018;79;20972;-67
2021/07/01 03:20:16;;;;;;;8.90;5.70;;;;;;;22.28;92.85;100605.03;1743287;79;20982;-67
2021/07/01 03:23:02;;;;;;;11.78;5.00;;;;;;;22.38;92.70;100605.58;1772226;79;21007;-66
2021/07/01 03:25:29;;;;;;;7.05;5.37;;;;;;;22.52;92.26;100597.56;1774764;78;21000;-66
2021/07/01 03:27:56;;;;;;;6.65;5.62;;;;;;;22.63;91.62;100586.56;1741314;79;21430;-67
2021/07/01 03:30:23;;;;;;;13.43;5.62;;;;;;;22.75;90.87;100577.25;1766561;78;21675;-67
2021/07/01 03:32:52;;;;;;;11.45;5.65;;;;;;;22.86;90.24;100564.50;1782315;78;21382;-65
2021/07/01 03:35:18;;;;;;;11.55;5.97;;;;;;;22.99;89.21;100557.42;1771305;79;21064;-66
2021/07/01 03:38:03;;;;;;;10.20;5.62;;;;;;;23.13;88.13;100531.55;1768677;79;21556;-68
2021/07/01 03:40:44;;;;;;;9.65;5.92;;;;;;;23.25;87.21;100511.31;1765068;79;21093;-67
2021/07/01 03:43:11;;;;;;;11.22;5.03;;;;;;;23.38;86.62;100513.77;1773810;78;21363;-67
2021/07/01 03:45:40;;;;;;;9.78;4.83;;;;;;;23.48;85.41;100510.16;1746160;79;21295;-66
2021/07/01 03:48:07;;;;;;;9.45;5.20;;;;;;;23.53;84.88;100501.00;1748165;79;22809;-68
2021/07/01 03:50:34;;;;;;;6.83;5.00;;;;;;;23.61;84.52;100498.42;1749003;79;21128;-68
2021/07/01 03:53:08;;;;;;;11.10;5.60;;;;;;;23.69;83.65;100496.34;1772404;79;21380;-67
2021/07/01 03:55:35;;;;;;;7.08;5.20;;;;;;;23.80;82.91;100493.94;1767648;79;21559;-68
2021/07/01 03:58:02;;;;;;;8.43;5.67;;;;;;;23.89;82.12;100476.63;1774038;79;21414;-67
2021/07/01 04:00:31;;;;;;;9.73;5.12;;;;;;;23.96;81.33;100475.53;1684448;83;20950;-68
2021/07/01 04:03:00;;;;;;;11.18;5.12;;;;;;;24.00;81.14;100468.25;1773907;80;21501;-68
2021/07/01 04:05:30;;;;;;;8.15;5.10;;;;;;;24.06;80.86;100471.44;1772330;80;21615;-70
2021/07/01 04:07:57;;;;;;;8.65;5.55;;;;;;;24.06;80.41;100469.54;1745752;80;21060;-68
2021/07/01 04:10:28;;;;;;;14.05;6.22;;;;;;;24.09;80.08;100456.07;1768886;80;21039;-69
2021/07/01 04:13:00;;;;;;;11.03;5.60;;;;;;;24.11;79.45;100465.00;1764095;80;20945;-68
2021/07/01 04:15:36;;;;;;;10.28;5.60;;;;;;;24.14;79.10;100468.80;1760598;80;21543;-70
2021/07/01 04:18:20;;;;;;;9.70;6.85;;;;;;;24.17;78.82;100463.02;1764623;80;21020;-67
2021/07/01 04:21:06;;;;;;;15.10;7.17;;;;;;;24.22;78.33;100468.94;1756247;80;21011;-69
2021/07/01 04:23:51;;;;;;;9.88;6.70;;;;;;;24.29;78.04;100473.28;1764416;80;21385;-68
2021/07/01 04:26:37;;;;;;;9.73;6.10;;;;;;;24.37;77.47;100463.82;1753755;80;20957;-69
2021/07/01 04:29:06;;;;;;;7.83;6.22;;;;;;;24.46;76.78;100464.79;1768259;79;21225;-68
2021/07/01 04:31:34;;;;;;;9.50;6.70;;;;;;;24.55;76.18;100470.72;1738920;80;21406;-67
2021/07/01 04:34:04;;;;;;;8.73;5.97;;;;;;;24.67;75.60;100463.67;1758278;80;21491;-68
2021/07/01 04:36:31;;;;;;;12.23;6.28;;;;;;;24.83;74.21;100452.91;1768991;80;21348;-69
2021/07/01 04:38:59;;;;;;;11.38;5.90;;;;;;;24.94;73.00;100450.45;1770920;79;21512;-68
2021/07/01 04:41:27;;;;;;;13.30;6.87;;;;;;;25.06;72.19;100448.87;1761518;80;21009;-68
2021/07/01 04:43:54;;;;;;;12.28;6.37;;;;;;;25.16;71.89;100453.75;1770059;80;21381;-67
2021/07/01 04:46:23;;;;;;;9.40;5.35;;;;;;;25.24;71.85;100456.59;1764571;80;20913;-68
2021/07/01 04:48:53;;;;;;;9.53;5.53;;;;;;;25.28;71.77;100442.03;1762702;79;21529;-68
2021/07/01 04:51:24;;;;;;;10.58;5.42;;;;;;;25.32;71.98;100443.46;1761730;80;21844;-67
2021/07/01 04:54:06;;;;;;;10.82;5.80;;;;;;;25.34;72.01;100441.91;1768902;80;20964;-68
2021/07/01 04:56:51;;;;;;;7.90;4.97;;;;;;;25.31;72.10;100433.48;1752940;80;21553;-69
2021/07/01 04:59:20;;;;;;;8.48;5.50;;;;;;;25.27;72.15;100438.44;1769525;80;21020;-68
2021/07/01 05:01:58;;;;;;;15.35;6.35;;;;;;;25.24;72.23;100448.86;1762147;80;21625;-68
2021/07/01 05:04:43;;;;;;;8.98;5.40;;;;;;;25.14;72.35;100442.95;1767829;80;21755;-68
2021/07/01 05:07:10;;;;;;;8.53;4.72;;;;;;;25.04;72.97;100450.37;1764641;80;20905;-68
2021/07/01 05:09:38;;;;;;;7.55;5.17;;;;;;;24.95;73.57;100449.95;1765646;79;21639;-68
2021/07/01 05:12:23;;;;;;;;;;;;;;;24.86;74.31;100444.89;1764895;80;20933;-68
2021/07/01 05:14:50;;;;;;;5.42;4.60;;;;;;;24.79;74.96;100446.02;1759888;80;20153;-68
2021/07/01 05:17:17;;;;;;;7.42;5.10;;;;;;;24.72;75.72;100453.10;1738567;80;21037;-69
2021/07/01 05:19:43;;;;;;;9.63;5.30;;;;;;;24.65;76.67;100457.45;1759731;80;21143;-68
2021/07/01 05:22:14;;;;;;;6.60;5.37;;;;;;;24.59;77.93;100465.28;1766473;80;22646;-67
2021/07/01 05:24:59;;;;;;;9.55;5.30;;;;;;;24.57;78.97;100467.84;1761288;79;21902;-68
2021/07/01 05:27:44;;;;;;;9.65;5.95;;;;;;;24.54;80.19;100481.33;1763360;80;20993;-69
2021/07/01 05:30:29;;;;;;;9.05;5.50;;;;;;;24.52;81.01;100480.61;1768632;80;20966;-69
2021/07/01 05:33:14;;;;;;;10.05;5.65;;;;;;;24.52;81.27;100488.84;1767948;80;24335;-68
2021/07/01 05:35:42;;;;;;;9.60;5.22;;;;;;;24.52;81.57;100485.22;1759089;80;21839;-69
2021/07/01 05:38:09;;;;;;;9.00;5.20;;;;;;;24.54;81.77;100489.55;1767201;80;21008;-68
2021/07/01 05:40:36;;;;;;;6.67;5.20;;;;;;;24.56;81.64;100486.66;1768177;80;21021;-69
2021/07/01 05:43:03;;;;;;;10.75;5.75;;;;;;;24.57;81.40;100487.87;1766719;80;20984;-66
2021/07/01 05:45:31;;;;;;;8.80;5.53;;;;;;;24.57;81.27;100498.83;1723127;80;20913;-67
2021/07/01 05:47:58;;;;;;;10.58;5.10;;;;;;;24.55;81.23;100502.75;1765601;80;21196;-66
2021/07/01 05:50:25;;;;;;;8.60;4.92;;;;;;;24.52;81.21;100498.42;1755233;80;20990;-66
2021/07/01 05:52:58;;;;;;;10.35;5.15;;;;;;;24.50;80.83;100503.69;1760584;80;20960;-67
2021/07/01 05:55:21;;;;;;;7.60;5.47;;;;;;;24.44;80.83;100521.62;1761878;79;21525;-68
2021/07/01 05:57:47;;;;;;;11.75;5.58;;;;;;;24.39;81.05;100529.40;1757373;79;21450;-67
2021/07/01 06:00:17;;;;;;;8.28;5.30;;;;;;;24.31;81.40;100520.06;1763493;79;21137;-67
2021/07/01 06:02:49;;;;;;;13.15;5.55;;;;;;;24.28;81.59;100531.32;1705006;82;21006;-68
2021/07/01 06:05:15;;;;;;;7.03;5.25;;;;;;;24.24;81.69;100528.53;1723287;81;21424;-64
2021/07/01 06:08:00;;;;;;;9.53;5.42;;;;;;;24.25;81.59;100531.63;1741169;80;21065;-67
2021/07/01 06:10:28;;;;;;;10.50;5.22;;;;;;;24.28;81.22;100529.95;1741950;80;21480;-67
2021/07/01 06:12:54;;;;;;;8.98;5.08;;;;;;;24.30;81.08;100529.30;1742546;80;21422;-66
2021/07/01 06:15:23;;;;;;;7.97;5.35;;;;;;;24.34;80.85;100524.39;1738230;80;21560;-67
2021/07/01 06:17:50;;;;;;;10.78;5.45;;;;;;;24.38;80.62;100522.20;1745409;78;21126;-67
2021/07/01 06:20:16;;;;;;;12.43;6.28;;;;;;;24.42;80.33;100516.77;1768104;79;21092;-66
2021/07/01 06:22:43;;;;;;;8.55;5.37;;;;;;;24.45;79.98;100504.16;1714275;81;21607;-67
2021/07/01 06:25:11;;;;;;;9.43;5.55;;;;;;;24.51;80.32;100503.55;1732820;79;21505;-65
2021/07/01 06:27:38;;;;;;;9.55;5.95;;;;;;;24.59;79.69;100506.39;1809364;77;21451;-66
2021/07/01 06:30:20;;;;;;;9.33;6.15;;;;;;;24.65;79.90;100498.56;1808015;77;21460;-67
2021/07/01 06:32:53;;;;;;;9.05;6.30;;;;;;;24.70;80.22;100504.48;1808694;77;20873;-68
2021/07/01 06:35:24;;;;;;;9.88;6.37;;;;;;;24.70;80.89;100509.95;1809393;77;21116;-66
2021/07/01 06:37:56;;;;;;;11.60;6.45;;;;;;;24.70;81.49;100505.33;1807406;77;21071;-68
2021/07/01 06:40:41;;;;;;;8.50;6.30;;;;;;;24.67;82.43;100514.38;1809686;77;20987;-69
2021/07/01 06:43:26;;;;;;;7.65;5.83;;;;;;;24.63;82.97;100519.78;1809175;77;21403;-67
2021/07/01 06:46:13;;;;;;;9.43;6.28;;;;;;;24.59;83.70;100535.16;1808792;77;21631;-70
2021/07/01 06:48:58;;;;;;;11.18;7.25;;;;;;;24.53;84.61;100522.56;1811154;77;20957;-68
2021/07/01 06:51:43;;;;;;;8.23;6.50;;;;;;;24.50;85.46;100541.56;1810207;77;21850;-68
2021/07/01 06:54:29;;;;;;;10.23;6.25;;;;;;;24.46;86.13;100546.98;1811603;77;20952;-66
2021/07/01 06:57:07;;;;;;;10.28;6.85;;;;;;;24.43;86.40;100545.92;1806873;77;22587;-67
2021/07/01 06:59:35;;;;;;;8.95;6.75;;;;;;;24.38;86.77;100553.70;1807873;77;21486;-68
2021/07/01 07:02:02;;;;;;;12.47;6.92;;;;;;;24.32;87.77;100561.51;1808743;77;21008;-67
2021/07/01 07:04:28;;;;;;;13.43;6.65;;;;;;;24.32;88.37;100565.62;1808475;77;21881;-67
2021/07/01 07:06:55;;;;;;;9.10;6.20;;;;;;;24.31;88.75;100568.00;1810882;77;21931;-64
2021/07/01 07:09:22;;;;;;;8.30;6.83;;;;;;;24.34;89.24;100576.94;1810953;77;20933;-67
2021/07/01 07:11:50;;;;;;;7.53;6.20;;;;;;;24.39;89.03;100582.83;1814248;77;21506;-69
2021/07/01 07:14:17;;;;;;;10.43;7.00;;;;;;;24.44;88.40;100590.96;1807508;77;20955;-66
2021/07/01 07:16:46;;;;;;;10.05;6.85;;;;;;;24.55;87.96;100606.88;1810778;77;21709;-66
2021/07/01 07:19:12;;;;;;;8.50;6.92;;;;;;;24.70;87.41;100603.15;1809253;77;21470;-68
2021/07/01 07:21:45;;;;;;;10.65;6.50;;;;;;;24.90;86.49;100610.80;1811454;77;21565;-65
2021/07/01 07:24:16;;;;;;;10.15;6.10;;;;;;;25.22;84.90;100608.13;1807235;77;21271;-68
2021/07/01 07:26:48;;;;;;;10.28;6.42;;;;;;;25.63;83.18;100592.64;1805259;77;20968;-67
2021/07/01 07:29:16;;;;;;;9.15;6.08;;;;;;;26.06;81.18;100601.08;1788921;77;21092;-69
2021/07/01 07:31:44;;;;;;;7.75;6.15;;;;;;;26.41;79.01;100608.93;1807247;77;21030;-67
2021/07/01 07:34:10;;;;;;;9.65;6.00;;;;;;;26.65;77.31;100614.23;1809226;77;21173;-60
2021/07/01 07:36:37;;;;;;;11.48;6.65;;;;;;;26.84;76.22;100619.15;1806524;77;21531;-61
2021/07/01 07:39:05;;;;;;;12.93;7.12;;;;;;;26.96;74.65;100612.88;1790349;78;21040;-59
2021/07/01 07:41:34;;;;;;;11.90;6.70;;;;;;;27.04;73.67;100614.28;1808273;77;21353;-59
2021/07/01 07:44:01;;;;;;;6.72;6.03;;;;;;;27.10;73.47;100607.26;1814811;77;20909;-59
2021/07/01 07:46:30;;;;;;;13.13;6.05;;;;;;;27.16;73.54;100604.71;1809345;77;21631;-61
2021/07/01 07:48:56;;;;;;;7.40;5.45;;;;;;;27.25;73.34;100611.60;1806852;77;21035;-59
2021/07/01 07:51:29;;;;;;;11.63;6.00;;;;;;;27.38;73.01;100620.76;1807318;77;20951;-60
2021/07/01 07:54:03;;;;;;;7.80;5.83;;;;;;;27.56;71.79;100631.70;1806282;77;21409;-60
2021/07/01 07:56:40;;;;;;;8.05;5.67;;;;;;;27.82;71.12;100638.97;1811989;77;26723;-60
2021/07/01 07:58:59;;;;;;;8.20;5.97;;;;;;;28.12;70.37;100632.43;1810496;77;20896;-69
2021/07/01 08:01:28;;;;;;;10.40;6.37;;;;;;;28.36;69.56;100635.73;1811302;77;20972;-67
2021/07/01 08:03:57;;;;;;;8.63;5.78;;;;;;;28.60;68.77;100634.81;1761835;77;21001;-70
2021/07/01 08:06:26;;;;;;;7.30;6.00;;;;;;;28.84;67.60;100625.31;1812181;77;21056;-69
2021/07/01 08:08:56;;;;;;;8.63;6.08;;;;;;;28.98;66.11;100630.11;1807270;77;21695;-70
2021/07/01 08:11:24;;;;;;;9.60;5.75;;;;;;;29.07;65.61;100615.76;1809118;77;22235;-68
2021/07/01 08:13:55;;;;;;;8.10;6.33;;;;;;;29.16;65.61;100620.19;1789794;78;21516;-68
2021/07/01 08:16:20;;;;;;;12.93;6.17;;;;;;;29.30;65.66;100617.72;1804850;77;21009;-67
2021/07/01 08:18:47;;;;;;;9.18;6.10;;;;;;;29.48;64.73;100609.69;1771551;77;21346;-68
2021/07/01 08:21:15;;;;;;;11.43;6.47;;;;;;;29.67;64.23;100624.41;1819604;77;20904;-69
2021/07/01 08:23:44;;;;;;;8.60;5.45;;;;;;;29.88;64.03;100617.36;1817686;77;21030;-69
2021/07/01 08:26:17;;;;;;;8.00;5.67;;;;;;;30.08;63.65;100604.45;1820534;77;20948;-68
2021/07/01 08:28:41;;;;;;;9.25;6.72;;;;;;;30.28;62.83;100602.00;1817707;77;20963;-69
2021/07/01 08:31:14;;;;;;;11.43;5.78;;;;;;;30.42;62.29;100610.02;1819293;77;21716;-67
2021/07/01 08:33:43;;;;;;;11.80;5.67;;;;;;;30.55;62.27;100611.59;1818067;77;21661;-69
2021/07/01 08:36:19;;;;;;;11.03;6.22;;;;;;;30.62;61.81;100610.84;1817110;77;21733;-69
2021/07/01 08:38:50;;;;;;;12.68;6.00;;;;;;;30.61;61.55;100607.24;1819321;77;20972;-69
2021/07/01 08:41:19;;;;;;;10.30;6.28;;;;;;;30.54;61.48;100593.27;1818323;77;20964;-66
2021/07/01 08:43:59;;;;;;;11.78;6.65;;;;;;;30.42;61.85;100592.05;1824153;77;21048;-68
2021/07/01 08:46:48;;;;;;;9.85;6.10;;;;;;;30.25;62.80;100588.05;1822725;77;21383;-68
2021/07/01 08:49:37;;;;;;;10.25;6.15;;;;;;;30.16;62.78;100586.39;1819820;77;20924;-67
2021/07/01 08:52:06;;;;;;;11.35;6.05;;;;;;;30.07;63.12;100580.63;1823962;77;20975;-60
2021/07/01 08:54:35;;;;;;;11.03;5.87;;;;;;;29.95;63.51;100572.73;1787853;78;21553;-67
2021/07/01 08:57:05;;;;;;;8.78;5.83;;;;;;;29.88;63.90;100586.97;1752800;80;21733;-66
2021/07/01 08:59:54;;;;;;;9.75;6.15;;;;;;;29.85;64.46;100585.45;1816343;77;21022;-67
2021/07/01 09:02:37;;;;;;;12.93;5.92;;;;;;;29.81;64.74;100588.76;1820529;77;21742;-61
2021/07/01 09:05:10;;;;;;;9.38;6.00;;;;;;;29.70;65.15;100571.55;1790882;77;21531;-60
2021/07/01 09:07:39;;;;;;;10.05;6.67;;;;;;;29.61;65.40;100557.98;1826354;77;20916;-61
2021/07/01 09:10:10;;;;;;;8.90;6.12;;;;;;;29.54;65.45;100541.33;1807983;77;20959;-60
2021/07/01 09:12:42;;;;;;;10.13;6.08;;;;;;;29.43;65.74;100546.22;1821701;77;20963;-62
2021/07/01 09:15:10;;;;;;;10.78;5.65;;;;;;;29.35;67.04;100530.19;1821326;77;20968;-61
2021/07/01 09:17:40;;;;;;;10.23;5.42;;;;;;;29.26;67.73;100515.58;1813866;77;21027;-67
2021/07/01 09:20:12;;;;;;;10.00;5.33;;;;;;;29.18;68.08;100508.75;1792463;77;21043;-60
2021/07/01 09:22:40;;;;;;;7.45;5.45;;;;;;;29.12;68.07;100513.96;1769427;78;21791;-58
2021/07/01 09:25:13;;;;;;;5.90;5.30;;;;;;;29.10;68.38;100503.62;1710950;81;21493;-61
2021/07/01 09:27:46;;;;;;;9.40;5.90;;;;;;;29.07;68.27;100496.22;1731930;81;21538;-60
2021/07/01 09:30:14;;;;;;;6.17;5.45;;;;;;;28.95;68.49;100493.02;1726376;82;21337;-62
2021/07/01 09:32:42;;;;;;;10.70;5.67;;;;;;;28.80;69.25;100497.91;1726035;81;21318;-68
2021/07/01 09:35:11;;;;;;;8.98;6.45;;;;;;;28.69;70.29;100505.19;1707056;82;21076;-68
2021/07/01 09:37:45;;;;;;;11.03;6.50;;;;;;;28.60;70.96;100512.09;1730552;81;20978;-67
2021/07/01 09:40:19;;;;;;;9.15;6.15;;;;;;;28.55;71.79;100510.41;1728654;82;21047;-67
2021/07/01 09:43:01;;;;;;;10.13;6.37;;;;;;;28.55;72.32;100505.42;1728898;81;21067;-68
2021/07/01 09:45:36;;;;;;;9.85;6.53;;;;;;;28.57;72.72;100494.54;1729506;81;21837;-60
2021/07/01 09:48:10;;;;;;;8.80;6.00;;;;;;;28.62;72.70;100482.98;1728842;81;20925;-59
2021/07/01 09:50:49;;;;;;;15.10;7.00;;;;;;;28.66;72.60;100493.98;1742894;80;20948;-60
2021/07/01 09:53:32;;;;;;;9.23;7.17;;;;;;;28.67;72.71;100500.38;1739044;80;21638;-59
2021/07/01 09:56:04;;;;;;;7.95;6.80;;;;;;;28.60;73.16;100497.47;1777695;78;21416;-61
2021/07/01 09:58:32;;;;;;;13.62;7.30;;;;;;;28.50;73.36;100481.14;1788258;78;21007;-59
2021/07/01 10:00:58;;;;;;;9.88;6.42;;;;;;;28.33;73.65;100478.09;1780219;78;21569;-60
2021/07/01 10:03:25;;;;;;;8.95;6.03;;;;;;;28.16;74.45;100480.39;1770103;79;20936;-60
2021/07/01 10:05:52;;;;;;;10.60;6.47;;;;;;;28.02;75.28;100484.70;1766746;78;21074;-60
2021/07/01 10:08:23;;;;;;;13.65;6.42;;;;;;;27.96;75.90;100485.38;1781612;78;21999;-59
2021/07/01 10:10:52;;;;;;;8.20;6.40;;;;;;;27.91;76.24;100475.41;1736509;80;21060;-58
2021/07/01 10:13:22;;;;;;;7.60;6.37;;;;;;;27.87;76.68;100467.16;1729827;81;21625;-61
2021/07/01 10:15:51;;;;;;;9.28;6.08;;;;;;;27.81;77.05;100460.98;1708466;82;21263;-58
2021/07/01 10:18:23;;;;;;;13.50;6.65;;;;;;;27.78;77.48;100455.82;1729353;81;21480;-58
2021/07/01 10:20:54;;;;;;;7.70;6.25;;;;;;;27.74;77.76;100449.29;1761028;79;22644;-66
2021/07/01 10:23:37;;;;;;;9.55;6.78;;;;;;;27.72;77.85;100445.82;1746301;80;21545;-66
2021/07/01 10:26:16;;;;;;;10.18;6.03;;;;;;;27.68;77.61;100444.98;1771191;78;20993;-70
2021/07/01 10:29:00;;;;;;;8.18;6.12;;;;;;;27.58;77.85;100454.80;1777375;78;21523;-66
2021/07/01 10:31:52;;;;;;;10.50;6.53;;;;;;;27.48;78.24;100441.69;1774466;78;21509;-68
2021/07/01 10:34:19;;;;;;;10.43;6.45;;;;;;;27.37;78.90;100440.13;1780067;78;21116;-68
2021/07/01 10:36:48;;;;;;;7.70;6.00;;;;;;;27.26;79.54;100433.08;1779382;78;21048;-66
2021/07/01 10:39:15;;;;;;;7.75;6.17;;;;;;;27.20;79.91;100432.40;1776307;78;21562;-64
2021/07/01 10:41:44;;;;;;;11.10;6.67;;;;;;;27.15;80.27;100431.03;1751285;79;21422;-64
2021/07/01 10:44:25;;;;;;;13.03;6.65;;;;;;;27.09;80.37;100433.09;1773424;79;20972;-68
2021/07/01 10:46:53;;;;;;;10.78;6.35;;;;;;;27.05;80.61;100433.06;1775943;78;20987;-66
2021/07/01 10:49:19;;;;;;;16.00;6.85;;;;;;;27.07;80.99;100429.63;1777700;78;21036;-65
2021/07/01 10:51:55;;;;;;;10.82;6.45;;;;;;;27.12;81.17;100431.38;1731538;79;21079;-72
2021/07/01 10:54:22;;;;;;;10.65;6.60;;;;;;;27.14;81.41;100421.55;1778043;78;21054;-65
2021/07/01 10:56:54;;;;;;;10.63;6.10;;;;;;;27.15;81.41;100420.02;1771017;79;21026;-67
2021/07/01 10:59:20;;;;;;;9.25;6.40;;;;;;;27.15;81.40;100417.27;1773640;79;21471;-68
2021/07/01 11:01:52;;;;;;;8.85;6.65;;;;;;;27.11;81.25;100426.90;1758837;79;21035;-67
2021/07/01 11:04:20;;;;;;;9.35;6.65;;;;;;;27.05;81.69;100441.84;1773748;78;22213;-65
2021/07/01 11:07:01;;;;;;;12.53;6.75;;;;;;;26.99;82.08;100429.63;1776000;78;21052;-66
2021/07/01 11:09:43;;;;;;;14.00;6.08;;;;;;;26.96;82.15;100435.47;1775203;78;20953;-66
2021/07/01 11:12:10;;;;;;;11.15;6.75;;;;;;;26.90;82.76;100427.91;1773176;78;21441;-66
2021/07/01 11:14:46;;;;;;;9.83;7.20;;;;;;;26.88;82.73;100421.19;1776340;78;20972;-67
2021/07/01 11:17:13;;;;;;;14.58;7.00;;;;;;;26.87;82.90;100426.34;1777694;78;21056;-65
2021/07/01 11:19:42;;;;;;;10.90;7.08;;;;;;;26.88;83.57;100426.18;1771626;78;21479;-67
2021/07/01 11:22:09;;;;;;;12.13;6.40;;;;;;;26.94;83.54;100426.53;1737536;80;21087;-66
2021/07/01 11:24:40;;;;;;;7.78;6.85;;;;;;;26.99;83.45;100422.75;1741963;80;21037;-68
2021/07/01 11:27:06;;;;;;;11.08;6.37;;;;;;;27.05;82.78;100413.80;1743859;80;21012;-67
2021/07/01 11:29:46;;;;;;;8.53;6.05;;;;;;;27.07;82.32;100429.63;1780176;78;21328;-67
2021/07/01 11:32:25;;;;;;;8.85;6.00;;;;;;;27.07;81.92;100413.12;1749680;80;20934;-66
2021/07/01 11:34:56;;;;;;;13.60;5.58;;;;;;;27.02;81.87;100404.52;1753077;80;21510;-67
2021/07/01 11:37:42;;;;;;;7.95;6.10;;;;;;;26.94;81.89;100403.15;1745221;80;20909;-66
2021/07/01 11:40:14;;;;;;;9.28;6.00;;;;;;;26.82;82.21;100410.30;1780505;78;21556;-66